METAR Data
IDs: Format: Raw Decoded Include TAF

Data at: 0439 UTC 26 Sep 2018

KMOP 260435Z AUTO 23008KT 10SM CLR 21/17 A2974 RMK AO2 T02050166
KMOP 260415Z AUTO 23009G17KT 10SM CLR 21/17 A2974 RMK AO2 T02070167
KMOP 260355Z AUTO 23010G18KT 10SM CLR 21/17 A2975 RMK AO2 T02100166
KMOP 260335Z AUTO 23011G16KT 10SM CLR 21/17 A2974 RMK AO2 T02100173
KMOP 260315Z AUTO 23011KT 10SM SCT025 21/19 A2975 RMK AO2 T02110191
KMOP 260255Z AUTO 21009G15KT 10SM SCT025 SCT038 BKN065 21/20 A2975 RMK AO2 T02100200
KMOP 260235Z AUTO 17007KT 10SM SCT027 SCT038 BKN065 21/20 A2974 RMK AO2 T02050197
KMOP 260215Z AUTO 17005KT 10SM SCT038 BKN047 BKN060 21/20 A2974 RMK AO2 T02050198
KMOP 260155Z AUTO 17005KT 10SM SCT038 SCT045 BKN055 21/20 A2974 RMK AO2 T02070200
KMOP 260135Z AUTO 15005KT 10SM CLR 21/20 A2973 RMK AO2 T02080201
KMOP 260115Z AUTO 16003KT 10SM CLR 21/20 A2974 RMK AO2 T02100201
KMOP 260055Z AUTO 17003KT 10SM SCT095 21/20 A2975 RMK AO2 T02110200
KMOP 260035Z AUTO 18003KT 10SM SCT095 22/20 A2976 RMK AO2 T02150201
KMOP 260015Z AUTO 20006KT 10SM SCT037 SCT095 22/20 A2978 RMK AO2 T02150202
KMOP 252355Z AUTO 20004KT 3SM BR SCT035 SCT050 22/20 A2978 RMK AO2 60034 T02170203 10260 20217
KMOP 252335Z AUTO 21003KT 10SM BKN050 BKN070 22/20 A2978 RMK AO2 T02200202
KMOP 252315Z AUTO 19005KT 10SM SCT037 BKN060 BKN070 23/20 A2978 RMK AO2 T02250200
KMOP 252255Z AUTO 21004KT 10SM SCT033 BKN039 OVC048 23/20 A2978 RMK AO2 P0034 T02260201
KMOP 252235Z AUTO 00000KT 10SM -RA SCT015 BKN028 OVC050 23/20 A2977 RMK AO2 P0033 T02270196
KMOP 252215Z AUTO 29003KT 3/4SM +RA BKN010 BKN017 OVC044 24/19 A2978 RMK AO2 P0025 T02380186
KMOP 252155Z AUTO 00000KT 10SM SCT032 BKN046 OVC050 25/18 A2978 RMK AO2 T02470177
KMOP 252135Z AUTO 22003KT 10SM SCT028 BKN055 OVC080 25/18 A2978 RMK AO2 T02500177
KMOP 252115Z AUTO 19003KT 10SM SCT026 BKN032 BKN055 25/18 A2978 RMK AO2 T02540180
KMOP 252055Z AUTO 00000KT 10SM SCT025 SCT031 26/18 A2978 RMK AO2 T02590179
KMOP 252035Z AUTO 00000KT 10SM SCT027 SCT032 SCT043 26/18 A2980 RMK AO2 T02570182
KMOP 252015Z AUTO 22004KT 10SM SCT028 BKN042 OVC065 25/19 A2983 RMK AO2 T02450187
KMOP 251955Z AUTO 22004KT 10SM BKN043 OVC055 24/20 A2983 RMK AO2 T02440196
KMOP 251935Z AUTO 21003KT 10SM BKN046 OVC050 24/20 A2984 RMK AO2 T02370201
KMOP 251915Z AUTO 20006KT 7SM RA SCT026 BKN045 OVC050 24/19 A2985 RMK AO2 T02390188
KMOP 251855Z AUTO 18006KT 10SM SCT025 BKN033 OVC055 24/19 A2986 RMK AO2 T02420186
KMOP 251835Z AUTO 15007KT 10SM SCT023 BKN027 OVC120 25/19 A2986 RMK AO2 T02470186
KMOP 251815Z AUTO 16006KT 10SM SCT023 BKN085 OVC110 25/19 A2986 RMK AO2 T02490188
KMOP 251755Z AUTO 17006KT 10SM SCT023 BKN085 OVC110 24/18 A2988 RMK AO2 60001 T02400183 10244 20195
KMOP 251735Z AUTO 19006KT 10SM SCT021 BKN090 OVC120 24/19 A2989 RMK AO2 T02410187
KMOP 251715Z AUTO 17005KT 10SM SCT050 OVC100 24/19 A2988 RMK AO2 T02410186
KMOP 251655Z AUTO 17006KT 10SM SCT025 SCT032 BKN050 24/19 A2989 RMK AO2 T02400185
KMOP 251635Z AUTO 17005KT 10SM SCT020 SCT025 BKN050 24/19 A2989 RMK AO2 T02430186
KMOP 251615Z AUTO 19007KT 10SM SCT020 SCT049 BKN110 24/19 A2990 RMK AO2 T02390192
KMOP 251555Z AUTO 00000KT 10SM SCT018 SCT025 BKN110 23/19 A2990 RMK AO2 T02280193
KMOP 251535Z AUTO 18005KT 10SM SCT012 BKN020 BKN025 23/20 A2991 RMK AO2 T02280203
KMOP 251515Z AUTO 23003KT 10SM BKN012 BKN019 22/21 A2992 RMK AO2 T02200206
KMOP 251455Z AUTO 20003KT 10SM SCT010 BKN014 22/21 A2992 RMK AO2 60001 T02150207
KMOP 251435Z AUTO 00000KT 10SM SCT006 BKN013 21/21 A2991 RMK AO2 T02110206
KMOP 251415Z AUTO 27003KT 7SM BKN006 OVC013 21/21 A2991 RMK AO2 T02090208
KMOP 251355Z AUTO 00000KT 7SM OVC008 20/20 A2992 RMK AO2 P0001 T02040204
KMOP 251335Z AUTO 21003KT 7SM SCT006 OVC010 20/20 A2993 RMK AO2 T02020202
KMOP 251315Z AUTO 00000KT 5SM BR SCT004 BKN010 OVC028 20/20 A2992 RMK AO2 T01990199
KMOP 251255Z AUTO 00000KT 4SM BR SCT003 SCT008 BKN028 20/20 A2992 RMK AO2 T01980198
KMOP 251235Z AUTO 00000KT 4SM BR BKN003 BKN012 OVC026 20/20 A2992 RMK AO2 T01960196
KMOP 251215Z AUTO 00000KT 3SM DZ OVC003 20/20 A2993 RMK AO2 T01960196
KMOP 251155Z AUTO 00000KT 5SM BR OVC003 20/20 A2993 RMK AO2 60001 70021 T01950195 10195 20190
KMOP 251135Z AUTO 16003KT 4SM BR OVC003 20/20 A2993 RMK AO2 T01950195
KMOP 251115Z AUTO 15003KT 3SM BR OVC003 19/19 A2992 RMK AO2 T01940194
KMOP 251055Z AUTO 15003KT 2 1/2SM BR OVC003 20/20 A2992 RMK AO2 P0001 T01950195
KMOP 251035Z AUTO 00000KT 1 3/4SM +RA OVC003 20/20 A2992 RMK AO2 P0001 T01950195
KMOP 251015Z AUTO 00000KT 1 3/4SM BR OVC003 20/20 A2992 RMK AO2 T01950195
KMOP 250955Z AUTO 17003KT 3SM BR OVC003 19/19 A2992 RMK AO2 T01940194
KMOP 250935Z AUTO 00000KT 3SM BR BKN003 OVC009 19/19 A2991 RMK AO2 T01930193
KMOP 250915Z AUTO 17003KT 2 1/2SM BR OVC003 19/19 A2992 RMK AO2 T01930193
KMOP 250855Z AUTO 16003KT 1 3/4SM DZ OVC003 19/19 A2991 RMK AO2 T01920192
KMOP 250835Z AUTO 00000KT 2SM BR OVC003 19/19 A2991 RMK AO2 T01920192
KMOP 250815Z AUTO 18003KT 2 1/2SM BR OVC003 19/19 A2992 RMK AO2 T01920192
KMOP 250755Z AUTO 00000KT 3SM BR OVC003 19/19 A2992 RMK AO2 T01920192
KMOP 250735Z AUTO 15005KT 3SM BR OVC003 19/19 A2992 RMK AO2 T01910190
KMOP 250715Z AUTO 17005KT 4SM BR OVC003 19/19 A2992 RMK AO2 T01910190
KMOP 250655Z AUTO 16005KT 5SM BR OVC003 19/19 A2993 RMK AO2 T01900190
KMOP 250635Z AUTO 17005KT 5SM BR OVC003 19/19 A2994 RMK AO2 T01900190
KMOP 250615Z AUTO 17005KT 5SM BR OVC003 19/19 A2994 RMK AO2 T01900189
KMOP 250555Z AUTO 18006KT 7SM OVC003 19/19 A2995 RMK AO2 60020 T01900188 10190 20167 402040086
KMOP 250535Z AUTO 17006KT 5SM -DZ OVC003 19/19 A2995 RMK AO2 T01880187
KMOP 250515Z AUTO 16005KT 4SM +RA OVC003 19/19 A2996 RMK AO2 T01860185
KMOP 250455Z AUTO 16005KT 5SM BR OVC003 19/19 A2996 RMK AO2 P0003 T01860185
KMOP 250435Z AUTO 16003KT 4SM DZ OVC003 19/19 A2997 RMK AO2 P0002 T01850185
KMOP 250415Z AUTO 14004KT 3SM +RA OVC003 19/18 A2997 RMK AO2 P0001 T01850183
KMOP 250355Z AUTO 14004KT 3SM -RA OVC003 18/18 A2998 RMK AO2 P0008 T01830182
KMOP 250335Z AUTO 00000KT 3SM +DZ OVC003 18/18 A2998 RMK AO2 P0003 T01810180
KMOP 250315Z AUTO 12003KT 3SM +DZ OVC003 18/18 A2999 RMK AO2 P0002 T01800180
KMOP 250255Z AUTO 13003KT 3SM +RA OVC003 18/18 A2999 RMK AO2 P0006 60007 T01800178
KMOP 250235Z AUTO 00000KT 4SM +RA BKN005 OVC010 18/18 A3000 RMK AO2 P0004 T01780176
KMOP 250215Z AUTO 12003KT 4SM +RA OVC007 18/17 A3000 RMK AO2 P0001 T01770174
KMOP 250155Z AUTO 12003KT 5SM -RA OVC007 18/17 A3000 RMK AO2 T01760173
KMOP 250135Z AUTO 00000KT 7SM OVC009 17/17 A3001 RMK AO2 T01740170
KMOP 250115Z AUTO 12005KT 7SM OVC009 17/17 A3001 RMK AO2 T01710168
KMOP 250055Z AUTO 10004KT 5SM BR OVC011 17/17 A3001 RMK AO2 P0001 T01700168
KMOP 250035Z AUTO 10004KT 5SM BR OVC011 17/17 A3001 RMK AO2 P0001 T01680166
KMOP 250015Z AUTO 10005KT 4SM BR OVC011 17/17 A3001 RMK AO2 P0001 T01670165
KMOP 242355Z AUTO 08005KT 4SM BR OVC011 17/17 A3001 RMK AO2 T01670165 10204 20167
KMOP 242335Z AUTO 08005KT 4SM BR SCT006 OVC011 17/17 A3003 RMK AO2 T01670165
KMOP 242315Z AUTO 08003KT 3SM -DZ OVC006 17/17 A3003 RMK AO2 T01670165
KMOP 242255Z AUTO 08004KT 1 1/4SM BR OVC008 17/16 A3004 RMK AO2 T01680163
KMOP 242235Z AUTO 08004KT 3SM BR OVC008 17/16 A3005 RMK AO2 T01690163
KMOP 242215Z AUTO 09004KT 2 1/2SM BR OVC010 17/16 A3005 RMK AO2 T01700162
KMOP 242155Z AUTO 12007KT 2 1/2SM -DZ OVC010 17/16 A3006 RMK AO2 T01710160
KMOP 242135Z AUTO 11007KT 4SM RA OVC012 18/15 A3006 RMK AO2 T01750147
KMOP 242115Z AUTO 11009G14KT 4SM RA OVC016 18/14 A3006 RMK AO2 T01830140
KMOP 242055Z AUTO 11008KT 10SM OVC018 19/14 A3006 RMK AO2 T01880139
KMOP 242035Z AUTO 10009KT 10SM OVC022 19/14 A3006 RMK AO2 T01940139
KMOP 242015Z AUTO 11008KT 10SM OVC025 20/14 A3006 RMK AO2 T01960135
KMOP 241955Z AUTO 11010KT 10SM BKN023 OVC030 20/13 A3007 RMK AO2 T02030134
KMOP 241935Z AUTO 12010KT 10SM OVC023 20/14 A3009 RMK AO2 T01980135
KMOP 241915Z AUTO 10011KT 10SM BKN020 OVC025 20/14 A3010 RMK AO2 T02010139
KMOP 241855Z AUTO 11008KT 10SM BKN020 OVC025 19/14 A3011 RMK AO2 T01930135
KMOP 241835Z AUTO 11010G14KT 10SM BKN016 OVC025 19/14 A3012 RMK AO2 T01930138
KMOP 241815Z AUTO 10008G14KT 10SM BKN012 BKN019 OVC025 19/14 A3013 RMK AO2 T01880140
KMOP 241755Z AUTO 10008KT 10SM OVC012 18/14 A3015 RMK AO2 T01770137 10177 20101
KMOP 241735Z AUTO 11007KT 10SM OVC012 17/14 A3016 RMK AO2 T01710135
KMOP 241715Z AUTO 10007KT 10SM OVC012 17/13 A3017 RMK AO2 T01700134
KMOP 241655Z AUTO 11010KT 10SM OVC012 17/14 A3018 RMK AO2 T01700142